sensor_id;sensor_type;location;lat;lon;timestamp;P1;durP1;ratioP1;P2;durP2;ratioP2
17852;SDS011;9052;53.494;14.376;2023-04-15T00:00:54;285.17;;;47.47;;
17852;SDS011;9052;53.494;14.376;2023-04-15T00:03:21;290.40;;;54.97;;
17852;SDS011;9052;53.494;14.376;2023-04-15T00:05:50;191.83;;;49.37;;
17852;SDS011;9052;53.494;14.376;2023-04-15T00:08:16;195.93;;;49.60;;
17852;SDS011;9052;53.494;14.376;2023-04-15T00:10:43;215.43;;;47.20;;
17852;SDS011;9052;53.494;14.376;2023-04-15T00:13:10;186.07;;;45.87;;
17852;SDS011;9052;53.494;14.376;2023-04-15T00:15:37;209.17;;;45.73;;
17852;SDS011;9052;53.494;14.376;2023-04-15T00:18:03;221.70;;;47.83;;
17852;SDS011;9052;53.494;14.376;2023-04-15T00:20:30;123.63;;;47.57;;
17852;SDS011;9052;53.494;14.376;2023-04-15T00:22:57;112.13;;;45.00;;
17852;SDS011;9052;53.494;14.376;2023-04-15T00:25:24;120.47;;;44.80;;
17852;SDS011;9052;53.494;14.376;2023-04-15T00:27:51;139.20;;;45.90;;
17852;SDS011;9052;53.494;14.376;2023-04-15T00:30:17;110.57;;;44.10;;
17852;SDS011;9052;53.494;14.376;2023-04-15T00:32:44;108.50;;;42.27;;
17852;SDS011;9052;53.494;14.376;2023-04-15T00:35:11;133.27;;;43.57;;
17852;SDS011;9052;53.494;14.376;2023-04-15T00:37:37;121.97;;;47.20;;
17852;SDS011;9052;53.494;14.376;2023-04-15T00:40:07;121.20;;;45.40;;
17852;SDS011;9052;53.494;14.376;2023-04-15T00:42:35;103.77;;;42.90;;
17852;SDS011;9052;53.494;14.376;2023-04-15T00:45:02;103.33;;;42.10;;
17852;SDS011;9052;53.494;14.376;2023-04-15T00:47:29;111.90;;;42.20;;
17852;SDS011;9052;53.494;14.376;2023-04-15T00:49:57;103.07;;;40.13;;
17852;SDS011;9052;53.494;14.376;2023-04-15T00:52:23;110.43;;;41.90;;
17852;SDS011;9052;53.494;14.376;2023-04-15T00:54:50;88.10;;;37.60;;
17852;SDS011;9052;53.494;14.376;2023-04-15T00:57:19;83.30;;;36.90;;
17852;SDS011;9052;53.494;14.376;2023-04-15T00:59:46;106.30;;;41.40;;
17852;SDS011;9052;53.494;14.376;2023-04-15T01:02:12;109.23;;;39.17;;
17852;SDS011;9052;53.494;14.376;2023-04-15T01:04:40;101.47;;;42.63;;
17852;SDS011;9052;53.494;14.376;2023-04-15T01:07:07;102.97;;;41.17;;
17852;SDS011;9052;53.494;14.376;2023-04-15T01:09:33;116.73;;;42.77;;
17852;SDS011;9052;53.494;14.376;2023-04-15T01:12:00;102.40;;;43.00;;
17852;SDS011;9052;53.494;14.376;2023-04-15T01:14:29;101.23;;;40.57;;
17852;SDS011;9052;53.494;14.376;2023-04-15T01:16:56;99.97;;;43.13;;
17852;SDS011;9052;53.494;14.376;2023-04-15T01:19:22;88.50;;;40.10;;
17852;SDS011;9052;53.494;14.376;2023-04-15T01:21:49;93.63;;;37.90;;
17852;SDS011;9052;53.494;14.376;2023-04-15T01:24:16;87.60;;;36.50;;
17852;SDS011;9052;53.494;14.376;2023-04-15T01:26:44;89.63;;;38.87;;
17852;SDS011;9052;53.494;14.376;2023-04-15T01:29:11;78.40;;;37.27;;
17852;SDS011;9052;53.494;14.376;2023-04-15T01:31:38;82.07;;;36.27;;
17852;SDS011;9052;53.494;14.376;2023-04-15T01:34:04;99.63;;;37.40;;
17852;SDS011;9052;53.494;14.376;2023-04-15T01:36:31;82.03;;;34.97;;
17852;SDS011;9052;53.494;14.376;2023-04-15T01:38:57;84.93;;;36.80;;
17852;SDS011;9052;53.494;14.376;2023-04-15T01:41:24;72.57;;;33.03;;
17852;SDS011;9052;53.494;14.376;2023-04-15T01:43:53;81.87;;;37.00;;
17852;SDS011;9052;53.494;14.376;2023-04-15T01:46:20;80.40;;;34.03;;
17852;SDS011;9052;53.494;14.376;2023-04-15T01:48:46;130.77;;;33.93;;
17852;SDS011;9052;53.494;14.376;2023-04-15T01:51:12;104.00;;;30.93;;
17852;SDS011;9052;53.494;14.376;2023-04-15T01:53:39;201.30;;;32.73;;
17852;SDS011;9052;53.494;14.376;2023-04-15T01:56:06;56.50;;;26.57;;
17852;SDS011;9052;53.494;14.376;2023-04-15T01:58:32;284.10;;;30.03;;
17852;SDS011;9052;53.494;14.376;2023-04-15T02:01:00;121.33;;;27.70;;
17852;SDS011;9052;53.494;14.376;2023-04-15T02:03:28;63.93;;;23.97;;
17852;SDS011;9052;53.494;14.376;2023-04-15T02:05:54;224.40;;;28.03;;
17852;SDS011;9052;53.494;14.376;2023-04-15T02:08:21;177.80;;;28.53;;
17852;SDS011;9052;53.494;14.376;2023-04-15T02:10:47;299.00;;;32.20;;
17852;SDS011;9052;53.494;14.376;2023-04-15T02:13:14;172.57;;;31.00;;
17852;SDS011;9052;53.494;14.376;2023-04-15T02:15:45;50.30;;;24.77;;
17852;SDS011;9052;53.494;14.376;2023-04-15T02:18:13;270.87;;;35.67;;
17852;SDS011;9052;53.494;14.376;2023-04-15T02:20:40;275.60;;;34.53;;
17852;SDS011;9052;53.494;14.376;2023-04-15T02:23:07;312.50;;;36.40;;
17852;SDS011;9052;53.494;14.376;2023-04-15T02:25:35;263.70;;;37.80;;
17852;SDS011;9052;53.494;14.376;2023-04-15T02:28:03;45.30;;;25.60;;
17852;SDS011;9052;53.494;14.376;2023-04-15T02:30:30;204.90;;;30.07;;
17852;SDS011;9052;53.494;14.376;2023-04-15T02:32:56;62.97;;;24.90;;
17852;SDS011;9052;53.494;14.376;2023-04-15T02:35:24;44.13;;;24.70;;
17852;SDS011;9052;53.494;14.376;2023-04-15T02:37:50;45.47;;;25.83;;
17852;SDS011;9052;53.494;14.376;2023-04-15T02:40:17;116.70;;;25.97;;
17852;SDS011;9052;53.494;14.376;2023-04-15T02:42:44;123.93;;;28.20;;
17852;SDS011;9052;53.494;14.376;2023-04-15T02:45:10;75.50;;;24.13;;
17852;SDS011;9052;53.494;14.376;2023-04-15T02:47:37;319.63;;;32.90;;
17852;SDS011;9052;53.494;14.376;2023-04-15T02:50:06;43.27;;;22.20;;
17852;SDS011;9052;53.494;14.376;2023-04-15T02:52:34;261.30;;;28.20;;
17852;SDS011;9052;53.494;14.376;2023-04-15T02:55:01;32.80;;;19.40;;
17852;SDS011;9052;53.494;14.376;2023-04-15T02:57:28;45.20;;;21.60;;
17852;SDS011;9052;53.494;14.376;2023-04-15T02:59:55;75.67;;;20.37;;
17852;SDS011;9052;53.494;14.376;2023-04-15T03:02:21;55.40;;;17.37;;
17852;SDS011;9052;53.494;14.376;2023-04-15T03:04:47;24.70;;;16.10;;
17852;SDS011;9052;53.494;14.376;2023-04-15T03:07:14;19.50;;;15.47;;
17852;SDS011;9052;53.494;14.376;2023-04-15T03:09:42;21.70;;;15.37;;
17852;SDS011;9052;53.494;14.376;2023-04-15T03:12:08;22.10;;;15.40;;
17852;SDS011;9052;53.494;14.376;2023-04-15T03:14:35;44.23;;;18.23;;
17852;SDS011;9052;53.494;14.376;2023-04-15T03:17:01;26.47;;;19.57;;
17852;SDS011;9052;53.494;14.376;2023-04-15T03:19:28;40.30;;;21.60;;
17852;SDS011;9052;53.494;14.376;2023-04-15T03:21:54;28.60;;;18.40;;
17852;SDS011;9052;53.494;14.376;2023-04-15T03:24:21;34.83;;;21.50;;
17852;SDS011;9052;53.494;14.376;2023-04-15T03:26:50;27.47;;;18.93;;
17852;SDS011;9052;53.494;14.376;2023-04-15T03:29:16;45.13;;;22.00;;
17852;SDS011;9052;53.494;14.376;2023-04-15T03:31:43;40.83;;;22.07;;
17852;SDS011;9052;53.494;14.376;2023-04-15T03:34:09;35.60;;;22.60;;
17852;SDS011;9052;53.494;14.376;2023-04-15T03:36:36;35.33;;;22.77;;
17852;SDS011;9052;53.494;14.376;2023-04-15T03:39:02;53.50;;;26.50;;
17852;SDS011;9052;53.494;14.376;2023-04-15T03:41:29;38.70;;;27.07;;
17852;SDS011;9052;53.494;14.376;2023-04-15T03:43:58;46.30;;;24.50;;
17852;SDS011;9052;53.494;14.376;2023-04-15T03:46:24;60.90;;;26.90;;
17852;SDS011;9052;53.494;14.376;2023-04-15T03:48:51;45.23;;;26.33;;
17852;SDS011;9052;53.494;14.376;2023-04-15T03:51:17;50.67;;;28.07;;
17852;SDS011;9052;53.494;14.376;2023-04-15T03:53:43;67.40;;;27.20;;
17852;SDS011;9052;53.494;14.376;2023-04-15T03:56:10;38.30;;;25.17;;
17852;SDS011;9052;53.494;14.376;2023-04-15T03:58:36;39.93;;;22.37;;
17852;SDS011;9052;53.494;14.376;2023-04-15T04:01:04;40.03;;;24.80;;
17852;SDS011;9052;53.494;14.376;2023-04-15T04:03:31;33.87;;;21.27;;
17852;SDS011;9052;53.494;14.376;2023-04-15T04:05:57;26.90;;;19.33;;
17852;SDS011;9052;53.494;14.376;2023-04-15T04:08:24;34.57;;;21.90;;
17852;SDS011;9052;53.494;14.376;2023-04-15T04:10:51;26.87;;;18.60;;
17852;SDS011;9052;53.494;14.376;2023-04-15T04:13:18;45.43;;;21.13;;
17852;SDS011;9052;53.494;14.376;2023-04-15T04:15:44;42.10;;;19.97;;
17852;SDS011;9052;53.494;14.376;2023-04-15T04:18:12;39.80;;;21.40;;
17852;SDS011;9052;53.494;14.376;2023-04-15T04:20:38;38.67;;;23.50;;
17852;SDS011;9052;53.494;14.376;2023-04-15T04:23:05;39.50;;;24.30;;
17852;SDS011;9052;53.494;14.376;2023-04-15T04:25:31;50.53;;;24.97;;
17852;SDS011;9052;53.494;14.376;2023-04-15T04:27:58;40.40;;;25.53;;
17852;SDS011;9052;53.494;14.376;2023-04-15T04:30:24;62.03;;;28.17;;
17852;SDS011;9052;53.494;14.376;2023-04-15T04:32:51;42.27;;;27.40;;
17852;SDS011;9052;53.494;14.376;2023-04-15T04:35:19;45.60;;;25.10;;
17852;SDS011;9052;53.494;14.376;2023-04-15T04:37:46;26.60;;;22.07;;
17852;SDS011;9052;53.494;14.376;2023-04-15T04:40:12;46.43;;;22.40;;
17852;SDS011;9052;53.494;14.376;2023-04-15T04:42:39;39.17;;;21.97;;
17852;SDS011;9052;53.494;14.376;2023-04-15T04:45:05;94.90;;;26.20;;
17852;SDS011;9052;53.494;14.376;2023-04-15T04:47:32;85.60;;;26.73;;
17852;SDS011;9052;53.494;14.376;2023-04-15T04:49:59;89.57;;;24.97;;
17852;SDS011;9052;53.494;14.376;2023-04-15T04:52:26;48.50;;;24.83;;
17852;SDS011;9052;53.494;14.376;2023-04-15T04:54:53;45.83;;;25.17;;
17852;SDS011;9052;53.494;14.376;2023-04-15T04:57:19;40.00;;;23.60;;
17852;SDS011;9052;53.494;14.376;2023-04-15T04:59:46;35.50;;;23.00;;
17852;SDS011;9052;53.494;14.376;2023-04-15T05:02:12;52.60;;;23.70;;
17852;SDS011;9052;53.494;14.376;2023-04-15T05:04:38;47.17;;;27.70;;
17852;SDS011;9052;53.494;14.376;2023-04-15T05:07:05;41.23;;;27.50;;
17852;SDS011;9052;53.494;14.376;2023-04-15T05:09:33;53.40;;;31.13;;
17852;SDS011;9052;53.494;14.376;2023-04-15T05:12:00;63.27;;;34.17;;
17852;SDS011;9052;53.494;14.376;2023-04-15T05:14:27;70.10;;;43.10;;
17852;SDS011;9052;53.494;14.376;2023-04-15T05:16:53;58.37;;;35.83;;
17852;SDS011;9052;53.494;14.376;2023-04-15T05:19:20;56.07;;;37.73;;
17852;SDS011;9052;53.494;14.376;2023-04-15T05:21:46;68.60;;;39.47;;
17852;SDS011;9052;53.494;14.376;2023-04-15T05:24:13;62.27;;;41.20;;
17852;SDS011;9052;53.494;14.376;2023-04-15T05:26:40;79.10;;;46.13;;
17852;SDS011;9052;53.494;14.376;2023-04-15T05:29:07;59.83;;;40.97;;
17852;SDS011;9052;53.494;14.376;2023-04-15T05:31:33;65.33;;;40.63;;
17852;SDS011;9052;53.494;14.376;2023-04-15T05:34:00;70.07;;;42.50;;
17852;SDS011;9052;53.494;14.376;2023-04-15T05:36:26;53.97;;;37.23;;
17852;SDS011;9052;53.494;14.376;2023-04-15T05:38:53;59.30;;;37.70;;
17852;SDS011;9052;53.494;14.376;2023-04-15T05:41:19;67.67;;;42.30;;
17852;SDS011;9052;53.494;14.376;2023-04-15T05:43:47;136.00;;;89.27;;
17852;SDS011;9052;53.494;14.376;2023-04-15T05:46:14;113.90;;;76.97;;
17852;SDS011;9052;53.494;14.376;2023-04-15T05:48:40;95.70;;;55.33;;
17852;SDS011;9052;53.494;14.376;2023-04-15T05:51:07;57.63;;;39.80;;
17852;SDS011;9052;53.494;14.376;2023-04-15T05:53:33;48.20;;;37.20;;
17852;SDS011;9052;53.494;14.376;2023-04-15T05:55:59;31.50;;;26.70;;
17852;SDS011;9052;53.494;14.376;2023-04-15T05:58:26;27.47;;;19.87;;
17852;SDS011;9052;53.494;14.376;2023-04-15T06:00:54;23.83;;;17.30;;
17852;SDS011;9052;53.494;14.376;2023-04-15T06:03:20;18.07;;;16.23;;
17852;SDS011;9052;53.494;14.376;2023-04-15T06:05:47;18.47;;;15.60;;
17852;SDS011;9052;53.494;14.376;2023-04-15T06:08:14;25.13;;;14.00;;
17852;SDS011;9052;53.494;14.376;2023-04-15T06:10:41;38.10;;;24.17;;
17852;SDS011;9052;53.494;14.376;2023-04-15T06:13:07;19.60;;;14.57;;
17852;SDS011;9052;53.494;14.376;2023-04-15T06:15:34;16.97;;;13.60;;
17852;SDS011;9052;53.494;14.376;2023-04-15T06:18:02;22.93;;;15.70;;
17852;SDS011;9052;53.494;14.376;2023-04-15T06:20:29;23.03;;;16.10;;
17852;SDS011;9052;53.494;14.376;2023-04-15T06:22:56;19.10;;;15.43;;
17852;SDS011;9052;53.494;14.376;2023-04-15T06:25:22;39.27;;;24.60;;
17852;SDS011;9052;53.494;14.376;2023-04-15T06:27:49;19.90;;;15.87;;
17852;SDS011;9052;53.494;14.376;2023-04-15T06:30:15;20.80;;;15.03;;
17852;SDS011;9052;53.494;14.376;2023-04-15T06:32:42;21.10;;;12.97;;
17852;SDS011;9052;53.494;14.376;2023-04-15T06:35:09;16.63;;;13.67;;
17852;SDS011;9052;53.494;14.376;2023-04-15T06:37:36;17.73;;;12.90;;
17852;SDS011;9052;53.494;14.376;2023-04-15T06:40:02;25.43;;;14.00;;
17852;SDS011;9052;53.494;14.376;2023-04-15T06:42:30;15.20;;;12.80;;
17852;SDS011;9052;53.494;14.376;2023-04-15T06:44:56;20.83;;;12.73;;
17852;SDS011;9052;53.494;14.376;2023-04-15T06:47:23;16.20;;;12.80;;
17852;SDS011;9052;53.494;14.376;2023-04-15T06:49:49;17.80;;;13.40;;
17852;SDS011;9052;53.494;14.376;2023-04-15T06:52:17;20.20;;;12.67;;
17852;SDS011;9052;53.494;14.376;2023-04-15T06:54:44;17.17;;;12.20;;
17852;SDS011;9052;53.494;14.376;2023-04-15T06:57:11;14.93;;;11.93;;
17852;SDS011;9052;53.494;14.376;2023-04-15T06:59:37;18.37;;;12.83;;
17852;SDS011;9052;53.494;14.376;2023-04-15T07:02:03;18.90;;;12.10;;
17852;SDS011;9052;53.494;14.376;2023-04-15T07:04:30;13.93;;;11.90;;
17852;SDS011;9052;53.494;14.376;2023-04-15T07:06:57;19.27;;;13.77;;
17852;SDS011;9052;53.494;14.376;2023-04-15T07:09:26;16.40;;;12.90;;
17852;SDS011;9052;53.494;14.376;2023-04-15T07:11:52;16.90;;;11.70;;
17852;SDS011;9052;53.494;14.376;2023-04-15T07:14:19;16.10;;;13.37;;
17852;SDS011;9052;53.494;14.376;2023-04-15T07:16:46;16.50;;;13.13;;
17852;SDS011;9052;53.494;14.376;2023-04-15T07:19:12;17.30;;;12.57;;
17852;SDS011;9052;53.494;14.376;2023-04-15T07:21:41;17.80;;;13.30;;
17852;SDS011;9052;53.494;14.376;2023-04-15T07:24:07;12.20;;;10.93;;
17852;SDS011;9052;53.494;14.376;2023-04-15T07:26:36;18.90;;;12.90;;
17852;SDS011;9052;53.494;14.376;2023-04-15T07:29:02;13.00;;;11.70;;
17852;SDS011;9052;53.494;14.376;2023-04-15T07:31:28;19.93;;;12.23;;
17852;SDS011;9052;53.494;14.376;2023-04-15T07:33:55;14.20;;;11.73;;
17852;SDS011;9052;53.494;14.376;2023-04-15T07:36:21;16.37;;;11.90;;
17852;SDS011;9052;53.494;14.376;2023-04-15T07:38:48;14.43;;;11.87;;
17852;SDS011;9052;53.494;14.376;2023-04-15T07:41:14;17.10;;;11.70;;
17852;SDS011;9052;53.494;14.376;2023-04-15T07:43:42;20.63;;;13.20;;
17852;SDS011;9052;53.494;14.376;2023-04-15T07:46:09;12.73;;;11.20;;
17852;SDS011;9052;53.494;14.376;2023-04-15T07:48:36;11.70;;;10.47;;
17852;SDS011;9052;53.494;14.376;2023-04-15T07:51:02;14.37;;;12.87;;
17852;SDS011;9052;53.494;14.376;2023-04-15T07:53:29;15.70;;;13.07;;
17852;SDS011;9052;53.494;14.376;2023-04-15T07:55:57;14.43;;;12.23;;
17852;SDS011;9052;53.494;14.376;2023-04-15T08:01:27;17.57;;;13.07;;
17852;SDS011;9052;53.494;14.376;2023-04-15T08:03:54;16.43;;;11.13;;
17852;SDS011;9052;53.494;14.376;2023-04-15T08:06:21;14.17;;;12.17;;
17852;SDS011;9052;53.494;14.376;2023-04-15T08:08:47;16.43;;;12.57;;
17852;SDS011;9052;53.494;14.376;2023-04-15T08:11:14;12.43;;;10.97;;
17852;SDS011;9052;53.494;14.376;2023-04-15T08:13:41;17.17;;;12.53;;
17852;SDS011;9052;53.494;14.376;2023-04-15T08:16:12;18.43;;;11.60;;
17852;SDS011;9052;53.494;14.376;2023-04-15T08:18:40;14.70;;;10.80;;
17852;SDS011;9052;53.494;14.376;2023-04-15T08:21:07;17.93;;;12.97;;
17852;SDS011;9052;53.494;14.376;2023-04-15T08:23:34;13.00;;;11.40;;
17852;SDS011;9052;53.494;14.376;2023-04-15T08:26:00;12.67;;;11.20;;
17852;SDS011;9052;53.494;14.376;2023-04-15T08:28:27;15.33;;;12.07;;
17852;SDS011;9052;53.494;14.376;2023-04-15T08:30:54;14.57;;;11.30;;
17852;SDS011;9052;53.494;14.376;2023-04-15T08:33:21;15.47;;;12.63;;
17852;SDS011;9052;53.494;14.376;2023-04-15T08:35:53;18.93;;;11.97;;
17852;SDS011;9052;53.494;14.376;2023-04-15T08:38:19;13.03;;;11.73;;
17852;SDS011;9052;53.494;14.376;2023-04-15T08:40:46;17.10;;;12.20;;
17852;SDS011;9052;53.494;14.376;2023-04-15T08:43:14;17.40;;;13.00;;
17852;SDS011;9052;53.494;14.376;2023-04-15T08:45:41;20.90;;;12.53;;
17852;SDS011;9052;53.494;14.376;2023-04-15T08:48:08;15.03;;;11.27;;
17852;SDS011;9052;53.494;14.376;2023-04-15T08:50:35;13.13;;;11.77;;
17852;SDS011;9052;53.494;14.376;2023-04-15T08:53:03;14.60;;;12.40;;
17852;SDS011;9052;53.494;14.376;2023-04-15T08:55:31;20.67;;;11.43;;
17852;SDS011;9052;53.494;14.376;2023-04-15T08:58:00;21.43;;;12.73;;
17852;SDS011;9052;53.494;14.376;2023-04-15T09:00:27;11.80;;;10.60;;
17852;SDS011;9052;53.494;14.376;2023-04-15T09:02:54;16.60;;;11.80;;
17852;SDS011;9052;53.494;14.376;2023-04-15T09:05:21;18.10;;;12.47;;
17852;SDS011;9052;53.494;14.376;2023-04-15T09:07:49;16.97;;;12.50;;
17852;SDS011;9052;53.494;14.376;2023-04-15T09:10:17;16.37;;;11.60;;
17852;SDS011;9052;53.494;14.376;2023-04-15T09:12:44;18.13;;;12.83;;
17852;SDS011;9052;53.494;14.376;2023-04-15T09:15:10;15.87;;;11.80;;
17852;SDS011;9052;53.494;14.376;2023-04-15T09:17:41;14.77;;;12.10;;
17852;SDS011;9052;53.494;14.376;2023-04-15T09:20:08;14.93;;;13.00;;
17852;SDS011;9052;53.494;14.376;2023-04-15T09:22:35;15.47;;;12.03;;
17852;SDS011;9052;53.494;14.376;2023-04-15T09:25:03;12.90;;;11.37;;
17852;SDS011;9052;53.494;14.376;2023-04-15T09:27:31;18.93;;;12.23;;
17852;SDS011;9052;53.494;14.376;2023-04-15T09:30:01;21.10;;;12.03;;
17852;SDS011;9052;53.494;14.376;2023-04-15T09:32:28;14.10;;;12.63;;
17852;SDS011;9052;53.494;14.376;2023-04-15T09:34:56;15.90;;;12.57;;
17852;SDS011;9052;53.494;14.376;2023-04-15T09:37:33;15.43;;;12.30;;
17852;SDS011;9052;53.494;14.376;2023-04-15T09:40:00;19.13;;;11.27;;
17852;SDS011;9052;53.494;14.376;2023-04-15T09:42:26;16.50;;;12.10;;
17852;SDS011;9052;53.494;14.376;2023-04-15T09:44:55;19.53;;;12.70;;
17852;SDS011;9052;53.494;14.376;2023-04-15T09:47:27;17.47;;;12.57;;
17852;SDS011;9052;53.494;14.376;2023-04-15T09:49:54;25.53;;;13.50;;
17852;SDS011;9052;53.494;14.376;2023-04-15T09:52:21;22.40;;;13.90;;
17852;SDS011;9052;53.494;14.376;2023-04-15T09:54:50;21.90;;;14.30;;
17852;SDS011;9052;53.494;14.376;2023-04-15T09:57:18;14.30;;;12.17;;
17852;SDS011;9052;53.494;14.376;2023-04-15T09:59:46;14.00;;;12.60;;
17852;SDS011;9052;53.494;14.376;2023-04-15T10:02:14;13.57;;;12.03;;
17852;SDS011;9052;53.494;14.376;2023-04-15T10:04:41;13.40;;;12.03;;
17852;SDS011;9052;53.494;14.376;2023-04-15T10:07:07;15.27;;;12.60;;
17852;SDS011;9052;53.494;14.376;2023-04-15T10:09:34;20.20;;;12.60;;
17852;SDS011;9052;53.494;14.376;2023-04-15T10:12:01;16.20;;;13.17;;
17852;SDS011;9052;53.494;14.376;2023-04-15T10:14:30;13.90;;;11.97;;
17852;SDS011;9052;53.494;14.376;2023-04-15T10:16:57;16.80;;;13.20;;
17852;SDS011;9052;53.494;14.376;2023-04-15T10:19:28;12.47;;;11.17;;
17852;SDS011;9052;53.494;14.376;2023-04-15T10:21:57;13.80;;;11.30;;
17852;SDS011;9052;53.494;14.376;2023-04-15T10:24:24;17.00;;;12.87;;
17852;SDS011;9052;53.494;14.376;2023-04-15T10:26:51;24.57;;;11.87;;
17852;SDS011;9052;53.494;14.376;2023-04-15T10:29:18;14.30;;;11.63;;
17852;SDS011;9052;53.494;14.376;2023-04-15T10:31:45;15.87;;;12.20;;
17852;SDS011;9052;53.494;14.376;2023-04-15T10:34:12;16.50;;;12.13;;
17852;SDS011;9052;53.494;14.376;2023-04-15T10:36:41;14.40;;;11.13;;
17852;SDS011;9052;53.494;14.376;2023-04-15T10:42:01;15.53;;;11.53;;
17852;SDS011;9052;53.494;14.376;2023-04-15T10:44:31;14.20;;;10.87;;
17852;SDS011;9052;53.494;14.376;2023-04-15T10:46:58;16.30;;;11.47;;
17852;SDS011;9052;53.494;14.376;2023-04-15T10:49:24;12.73;;;10.53;;
17852;SDS011;9052;53.494;14.376;2023-04-15T10:51:56;13.73;;;11.50;;
17852;SDS011;9052;53.494;14.376;2023-04-15T10:54:30;18.10;;;12.13;;
17852;SDS011;9052;53.494;14.376;2023-04-15T10:57:05;14.50;;;11.60;;
17852;SDS011;9052;53.494;14.376;2023-04-15T10:59:35;17.00;;;9.90;;
17852;SDS011;9052;53.494;14.376;2023-04-15T11:02:02;15.10;;;11.10;;
17852;SDS011;9052;53.494;14.376;2023-04-15T11:07:16;14.53;;;9.90;;
17852;SDS011;9052;53.494;14.376;2023-04-15T11:09:58;11.33;;;10.03;;
17852;SDS011;9052;53.494;14.376;2023-04-15T11:12:32;17.97;;;10.93;;
17852;SDS011;9052;53.494;14.376;2023-04-15T11:14:59;19.27;;;11.47;;
17852;SDS011;9052;53.494;14.376;2023-04-15T11:17:26;11.97;;;10.00;;
17852;SDS011;9052;53.494;14.376;2023-04-15T11:19:53;15.50;;;10.77;;
17852;SDS011;9052;53.494;14.376;2023-04-15T11:22:21;13.73;;;10.87;;
17852;SDS011;9052;53.494;14.376;2023-04-15T11:24:48;10.90;;;9.20;;
17852;SDS011;9052;53.494;14.376;2023-04-15T11:27:19;14.80;;;11.83;;
17852;SDS011;9052;53.494;14.376;2023-04-15T11:29:46;13.27;;;10.20;;
17852;SDS011;9052;53.494;14.376;2023-04-15T11:32:12;15.00;;;9.63;;
17852;SDS011;9052;53.494;14.376;2023-04-15T11:34:39;16.53;;;9.50;;
17852;SDS011;9052;53.494;14.376;2023-04-15T11:37:06;14.43;;;10.03;;
17852;SDS011;9052;53.494;14.376;2023-04-15T11:39:34;11.80;;;9.43;;
17852;SDS011;9052;53.494;14.376;2023-04-15T11:42:02;18.53;;;9.33;;
17852;SDS011;9052;53.494;14.376;2023-04-15T11:44:29;19.97;;;8.23;;
17852;SDS011;9052;53.494;14.376;2023-04-15T11:46:55;13.07;;;10.20;;
17852;SDS011;9052;53.494;14.376;2023-04-15T11:49:25;12.60;;;9.47;;
17852;SDS011;9052;53.494;14.376;2023-04-15T11:51:52;14.77;;;9.43;;
17852;SDS011;9052;53.494;14.376;2023-04-15T11:54:19;11.00;;;9.90;;
17852;SDS011;9052;53.494;14.376;2023-04-15T11:56:50;10.47;;;9.43;;
17852;SDS011;9052;53.494;14.376;2023-04-15T11:59:18;18.73;;;9.60;;
17852;SDS011;9052;53.494;14.376;2023-04-15T12:01:45;15.10;;;9.97;;
17852;SDS011;9052;53.494;14.376;2023-04-15T12:04:12;11.27;;;9.33;;
17852;SDS011;9052;53.494;14.376;2023-04-15T12:06:39;13.77;;;9.30;;
17852;SDS011;9052;53.494;14.376;2023-04-15T12:09:11;10.73;;;9.70;;
17852;SDS011;9052;53.494;14.376;2023-04-15T12:11:39;15.40;;;10.03;;
17852;SDS011;9052;53.494;14.376;2023-04-15T12:14:11;13.87;;;10.67;;
17852;SDS011;9052;53.494;14.376;2023-04-15T12:16:39;11.77;;;8.57;;
17852;SDS011;9052;53.494;14.376;2023-04-15T12:19:08;12.60;;;10.70;;
17852;SDS011;9052;53.494;14.376;2023-04-15T12:21:36;13.33;;;9.60;;
17852;SDS011;9052;53.494;14.376;2023-04-15T12:24:03;13.63;;;9.50;;
17852;SDS011;9052;53.494;14.376;2023-04-15T12:26:34;28.53;;;16.20;;
17852;SDS011;9052;53.494;14.376;2023-04-15T12:29:01;13.93;;;9.67;;
17852;SDS011;9052;53.494;14.376;2023-04-15T12:31:29;17.17;;;9.37;;
17852;SDS011;9052;53.494;14.376;2023-04-15T12:33:56;12.70;;;9.40;;
17852;SDS011;9052;53.494;14.376;2023-04-15T12:36:23;9.70;;;8.83;;
17852;SDS011;9052;53.494;14.376;2023-04-15T12:38:50;9.60;;;8.70;;
17852;SDS011;9052;53.494;14.376;2023-04-15T12:41:16;12.13;;;8.93;;
17852;SDS011;9052;53.494;14.376;2023-04-15T12:43:43;9.90;;;7.90;;
17852;SDS011;9052;53.494;14.376;2023-04-15T12:46:10;13.00;;;9.30;;
17852;SDS011;9052;53.494;14.376;2023-04-15T12:48:38;9.23;;;7.30;;
17852;SDS011;9052;53.494;14.376;2023-04-15T12:51:05;11.37;;;10.13;;
17852;SDS011;9052;53.494;14.376;2023-04-15T12:53:32;10.37;;;8.93;;
17852;SDS011;9052;53.494;14.376;2023-04-15T12:55:59;12.87;;;10.03;;
17852;SDS011;9052;53.494;14.376;2023-04-15T12:58:25;9.03;;;8.13;;
17852;SDS011;9052;53.494;14.376;2023-04-15T13:00:52;11.53;;;7.83;;
17852;SDS011;9052;53.494;14.376;2023-04-15T13:03:19;9.20;;;8.20;;
17852;SDS011;9052;53.494;14.376;2023-04-15T13:05:47;11.83;;;8.27;;
17852;SDS011;9052;53.494;14.376;2023-04-15T13:08:14;10.53;;;8.40;;
17852;SDS011;9052;53.494;14.376;2023-04-15T13:10:41;12.80;;;7.63;;
17852;SDS011;9052;53.494;14.376;2023-04-15T13:13:08;10.60;;;8.20;;
17852;SDS011;9052;53.494;14.376;2023-04-15T13:15:35;11.53;;;8.53;;
17852;SDS011;9052;53.494;14.376;2023-04-15T13:18:02;11.27;;;8.27;;
17852;SDS011;9052;53.494;14.376;2023-04-15T13:20:30;10.23;;;7.90;;
17852;SDS011;9052;53.494;14.376;2023-04-15T13:22:58;8.63;;;7.17;;
17852;SDS011;9052;53.494;14.376;2023-04-15T13:25:25;8.27;;;6.77;;
17852;SDS011;9052;53.494;14.376;2023-04-15T13:27:52;7.67;;;6.63;;
17852;SDS011;9052;53.494;14.376;2023-04-15T13:30:18;10.63;;;7.33;;
17852;SDS011;9052;53.494;14.376;2023-04-15T13:32:45;9.73;;;7.50;;
17852;SDS011;9052;53.494;14.376;2023-04-15T13:35:12;12.30;;;7.90;;
17852;SDS011;9052;53.494;14.376;2023-04-15T13:37:39;6.83;;;6.10;;
17852;SDS011;9052;53.494;14.376;2023-04-15T13:40:08;10.20;;;6.93;;
17852;SDS011;9052;53.494;14.376;2023-04-15T13:42:34;7.13;;;5.80;;
17852;SDS011;9052;53.494;14.376;2023-04-15T13:45:01;10.70;;;6.93;;
17852;SDS011;9052;53.494;14.376;2023-04-15T13:47:28;13.57;;;7.37;;
17852;SDS011;9052;53.494;14.376;2023-04-15T13:49:54;10.00;;;5.57;;
17852;SDS011;9052;53.494;14.376;2023-04-15T13:52:21;8.70;;;6.70;;
17852;SDS011;9052;53.494;14.376;2023-04-15T13:54:48;9.10;;;6.00;;
17852;SDS011;9052;53.494;14.376;2023-04-15T13:57:16;9.50;;;6.73;;
17852;SDS011;9052;53.494;14.376;2023-04-15T13:59:43;10.43;;;7.03;;
17852;SDS011;9052;53.494;14.376;2023-04-15T14:02:09;9.03;;;7.07;;
17852;SDS011;9052;53.494;14.376;2023-04-15T14:04:36;6.47;;;5.83;;
17852;SDS011;9052;53.494;14.376;2023-04-15T14:07:03;14.57;;;6.73;;
17852;SDS011;9052;53.494;14.376;2023-04-15T14:09:29;13.73;;;6.87;;
17852;SDS011;9052;53.494;14.376;2023-04-15T14:11:56;6.43;;;5.83;;
17852;SDS011;9052;53.494;14.376;2023-04-15T14:14:25;6.93;;;5.87;;
17852;SDS011;9052;53.494;14.376;2023-04-15T14:16:52;7.93;;;6.77;;
17852;SDS011;9052;53.494;14.376;2023-04-15T14:19:18;10.40;;;6.60;;
17852;SDS011;9052;53.494;14.376;2023-04-15T14:21:46;6.73;;;6.00;;
17852;SDS011;9052;53.494;14.376;2023-04-15T14:24:12;6.00;;;5.50;;
17852;SDS011;9052;53.494;14.376;2023-04-15T14:26:39;7.30;;;6.60;;
17852;SDS011;9052;53.494;14.376;2023-04-15T14:29:07;6.83;;;6.07;;
17852;SDS011;9052;53.494;14.376;2023-04-15T14:31:37;8.43;;;6.10;;